Time;durP1;ratioP1;P1;durP2;ratioP2;P2;SDS_P1;SDS_P2;PMS_P1;PMS_P2;Temp;Humidity;BMP_temperature;BMP_pressure;BME280_temperature;BME280_humidity;BME280_pressure;Samples;Min_cycle;Max_cycle;Signal;HPM_P1;HPM_P2
2021/03/20 05:10:58;;;;;;;1.60;1.60;;;-0.90;99.90;;;;;;5736518;23;20234;-77
2021/03/20 05:13:34;;;;;;;1.30;1.30;;;-1.00;99.90;;;;;;4942258;29;20753;-78
2021/03/20 05:16:26;;;;;;;1.40;1.40;;;-0.90;99.90;;;;;;4942284;29;20678;-78
2021/03/20 05:18:56;;;;;;;1.50;1.50;;;-0.90;99.90;;;;;;4942248;29;20733;-77
2021/03/20 05:21:26;;;;;;;1.60;1.60;;;-0.60;99.90;;;;;;4932744;29;20278;-78
2021/03/20 05:23:54;;;;;;;1.40;1.40;;;-0.70;99.90;;;;;;4922870;29;20206;-78
2021/03/20 05:26:22;;;;;;;1.30;1.30;;;-0.80;99.90;;;;;;4921142;29;20210;-80
2021/03/20 05:28:49;;;;;;;1.30;1.30;;;-0.80;99.90;;;;;;4920803;29;20226;-79
2021/03/20 05:31:17;;;;;;;1.50;1.50;;;-0.80;99.90;;;;;;4921078;29;20286;-80
2021/03/20 05:33:47;;;;;;;1.37;1.37;;;-0.90;99.90;;;;;;4921432;29;20689;-80
2021/03/20 05:36:14;;;;;;;1.40;1.40;;;-1.00;99.90;;;;;;4921351;29;20718;-79
2021/03/20 05:38:41;;;;;;;1.50;1.50;;;-1.10;99.90;;;;;;4920747;29;20441;-78
2021/03/20 05:41:22;;;;;;;1.50;1.50;;;-1.10;99.90;;;;;;4920991;29;20289;-80
2021/03/20 05:44:02;;;;;;;1.43;1.43;;;-1.10;99.90;;;;;;4920498;29;20676;-79
2021/03/20 05:46:37;;;;;;;1.40;1.40;;;-1.00;99.90;;;;;;4920800;29;20206;-80
2021/03/20 05:49:23;;;;;;;1.60;1.60;;;-0.90;99.90;;;;;;4920855;29;20210;-79
2021/03/20 05:52:20;;;;;;;1.40;1.40;;;-1.00;99.90;;;;;;4921509;29;20289;-79
2021/03/20 05:55:01;;;;;;;1.43;1.43;;;-1.00;99.90;;;;;;4921656;29;20210;-81
2021/03/20 05:57:35;;;;;;;1.60;1.60;;;-1.00;99.90;;;;;;4935062;29;20667;-79
2021/03/20 06:00:16;;;;;;;1.40;1.40;;;-0.90;99.90;;;;;;4940775;29;20237;-80
2021/03/20 06:02:55;;;;;;;1.30;1.30;;;-0.90;99.90;;;;;;4941423;29;20206;-80
2021/03/20 06:05:36;;;;;;;1.50;1.50;;;-1.00;99.90;;;;;;4943275;29;20206;-79
2021/03/20 06:08:23;;;;;;;1.50;1.50;;;-0.90;99.90;;;;;;4936991;29;20280;-79
2021/03/20 06:10:56;;;;;;;1.47;1.47;;;-0.90;99.90;;;;;;4934259;29;20238;-80
2021/03/20 06:13:58;;;;;;;1.47;1.47;;;-0.90;99.90;;;;;;4937027;29;20309;-80
2021/03/20 06:16:29;;;;;;;1.50;1.50;;;-0.70;99.90;;;;;;4935033;29;20253;-78
2021/03/20 06:19:24;;;;;;;1.40;1.40;;;-0.50;99.90;;;;;;4936896;29;20213;-81
2021/03/20 06:22:11;;;;;;;1.40;1.40;;;-0.50;99.90;;;;;;4936639;29;20233;-80
2021/03/20 06:25:24;;;;;;;1.60;1.60;;;-0.40;99.90;;;;;;4936564;29;20202;-78
2021/03/20 06:27:53;;;;;;;1.40;1.40;;;-0.40;99.90;;;;;;4903009;29;20209;-79
2021/03/20 06:30:32;;;;;;;1.50;1.50;;;-0.50;99.90;;;;;;4937409;29;20214;-80
2021/03/20 06:33:05;;;;;;;1.53;1.53;;;-0.50;99.90;;;;;;4937980;29;20248;-79
2021/03/20 06:35:37;;;;;;;1.33;1.33;;;-0.20;99.90;;;;;;4938786;29;20547;-80
2021/03/20 06:38:07;;;;;;;1.47;1.47;;;-0.50;99.90;;;;;;4937179;29;20269;-80
2021/03/20 06:40:49;;;;;;;1.40;1.40;;;-0.30;99.90;;;;;;4936088;29;20289;-80
2021/03/20 06:43:19;;;;;;;1.40;1.40;;;-0.20;99.90;;;;;;4937143;29;20197;-80
2021/03/20 06:45:48;;;;;;;1.50;1.50;;;-0.20;99.90;;;;;;4937144;29;20280;-80
2021/03/20 06:48:23;;;;;;;1.40;1.40;;;-0.10;99.90;;;;;;4936970;29;20205;-80
2021/03/20 06:50:54;;;;;;;1.60;1.60;;;0.00;99.90;;;;;;4935702;29;20305;-80
2021/03/20 06:53:29;;;;;;;1.40;1.40;;;0.00;99.90;;;;;;4936721;29;20222;-79
2021/03/20 06:56:03;;;;;;;1.50;1.50;;;0.00;99.90;;;;;;4936658;29;20190;-79
2021/03/20 06:58:33;;;;;;;1.50;1.50;;;0.30;99.90;;;;;;4936963;29;20206;-79
2021/03/20 07:01:02;;;;;;;1.40;1.40;;;0.10;99.90;;;;;;4936228;29;20273;-81
2021/03/20 07:03:49;;;;;;;1.60;1.60;;;0.10;99.90;;;;;;4937310;29;20198;-80
2021/03/20 07:06:24;;;;;;;1.50;1.50;;;0.10;99.90;;;;;;4934626;29;20202;-78
2021/03/20 07:08:54;;;;;;;1.50;1.50;;;0.20;99.90;;;;;;4930277;29;20237;-79
2021/03/20 07:11:26;;;;;;;1.40;1.40;;;0.50;99.90;;;;;;4917355;29;20223;-80
2021/03/20 07:14:35;;;;;;;1.40;1.40;;;0.30;99.90;;;;;;4917232;29;20327;-81
2021/03/20 07:17:04;;;;;;;1.60;1.60;;;0.30;99.90;;;;;;4916869;29;20321;-79
2021/03/20 07:19:31;;;;;;;1.50;1.50;;;0.40;99.90;;;;;;4917359;29;20270;-81
2021/03/20 07:22:07;;;;;;;1.40;1.40;;;0.40;99.90;;;;;;4916879;29;20226;-78
2021/03/20 07:24:36;;;;;;;1.77;1.77;;;0.50;99.90;;;;;;4916846;29;20258;-79
2021/03/20 07:27:18;;;;;;;1.60;1.60;;;0.30;99.90;;;;;;4916586;29;20671;-79
2021/03/20 07:29:49;;;;;;;1.30;1.30;;;0.60;99.90;;;;;;4916897;29;20215;-78
2021/03/20 07:32:19;;;;;;;1.57;1.57;;;0.70;99.90;;;;;;4921798;29;20222;-79
2021/03/20 07:34:47;;;;;;;1.47;1.47;;;0.60;99.90;;;;;;4919387;29;20293;-79
2021/03/20 07:37:23;;;;;;;1.30;1.30;;;0.50;99.90;;;;;;4916782;29;20215;-79
2021/03/20 07:39:53;;;;;;;1.30;1.30;;;0.60;99.90;;;;;;4916692;29;20217;-80
2021/03/20 07:42:27;;;;;;;1.50;1.50;;;0.70;99.90;;;;;;4917244;29;20222;-78
2021/03/20 07:44:58;;;;;;;1.33;1.33;;;0.70;99.90;;;;;;4916214;29;20209;-78
2021/03/20 07:47:26;;;;;;;1.43;1.43;;;0.80;99.90;;;;;;4916617;29;20207;-78
2021/03/20 07:50:21;;;;;;;1.30;1.30;;;0.80;99.90;;;;;;4916249;29;20690;-78
2021/03/20 07:53:02;;;;;;;1.30;1.30;;;0.80;99.90;;;;;;4914876;29;20365;-76
2021/03/20 07:55:36;;;;;;;1.40;1.40;;;0.70;99.90;;;;;;4907680;29;20282;-77
2021/03/20 07:58:06;;;;;;;1.30;1.30;;;0.80;99.90;;;;;;4916531;29;20234;-79
2021/03/20 08:00:41;;;;;;;1.60;1.60;;;1.00;99.90;;;;;;4916442;29;20648;-78
2021/03/20 08:03:16;;;;;;;1.40;1.40;;;0.90;99.90;;;;;;4921385;29;20566;-77
2021/03/20 08:05:43;;;;;;;1.50;1.50;;;0.90;99.90;;;;;;4919923;29;20206;-77
2021/03/20 08:08:20;;;;;;;1.40;1.40;;;0.90;99.90;;;;;;4919559;29;20266;-77
2021/03/20 08:10:49;;;;;;;1.30;1.30;;;1.30;99.90;;;;;;4916277;29;20273;-77
2021/03/20 08:13:28;;;;;;;1.40;1.40;;;1.10;99.90;;;;;;4915450;29;20222;-77
2021/03/20 08:15:57;;;;;;;1.30;1.30;;;1.00;99.90;;;;;;4918376;29;20211;-77
2021/03/20 08:18:28;;;;;;;1.40;1.40;;;1.00;99.90;;;;;;4917936;29;20215;-76
2021/03/20 08:21:36;;;;;;;1.40;1.40;;;1.10;99.90;;;;;;4918035;29;20282;-76
2021/03/20 08:24:29;;;;;;;1.40;1.40;;;1.30;99.90;;;;;;4898891;29;20227;-78
2021/03/20 08:27:11;;;;;;;1.50;1.50;;;1.30;99.90;;;;;;4898795;29;20211;-76
2021/03/20 08:30:05;;;;;;;1.30;1.30;;;1.70;99.90;;;;;;4898656;29;20736;-76
2021/03/20 08:33:04;;;;;;;1.37;1.37;;;1.70;99.90;;;;;;4917535;29;20238;-78
2021/03/20 08:35:41;;;;;;;1.40;1.40;;;2.00;99.90;;;;;;4917603;29;20210;-76
2021/03/20 08:38:37;;;;;;;1.40;1.40;;;1.80;99.90;;;;;;4918080;29;20214;-77
2021/03/20 08:41:10;;;;;;;1.30;1.30;;;2.00;99.90;;;;;;4917812;29;20226;-78
2021/03/20 08:44:02;;;;;;;1.40;1.40;;;2.10;99.90;;;;;;4917620;29;20235;-78
2021/03/20 08:46:48;;;;;;;1.30;1.30;;;2.00;99.90;;;;;;4917500;29;20300;-75
2021/03/20 08:49:26;;;;;;;1.40;1.40;;;1.90;99.90;;;;;;4929005;29;20212;-78
2021/03/20 08:52:01;;;;;;;1.30;1.30;;;2.00;99.90;;;;;;4926530;29;20230;-78
2021/03/20 08:54:49;;;;;;;1.40;1.40;;;2.20;99.90;;;;;;4917515;29;20205;-78
2021/03/20 08:57:25;;;;;;;1.50;1.50;;;2.50;96.70;;;;;;4917492;29;20644;-76
2021/03/20 08:59:54;;;;;;;1.37;1.37;;;2.90;94.20;;;;;;4917647;29;20218;-77
2021/03/20 09:02:36;;;;;;;1.50;1.50;;;3.10;95.10;;;;;;4917103;29;20285;-76
2021/03/20 09:05:15;;;;;;;1.30;1.30;;;3.00;95.40;;;;;;4917446;29;20649;-76
2021/03/20 09:07:48;;;;;;;1.37;1.37;;;3.00;94.70;;;;;;4917260;29;20214;-76
2021/03/20 09:10:19;;;;;;;1.20;1.20;;;3.30;99.90;;;;;;4917240;29;20207;-79
2021/03/20 09:12:52;;;;;;;1.40;1.40;;;3.30;94.00;;;;;;4916967;29;20277;-78
2021/03/20 09:15:24;;;;;;;1.37;1.37;;;3.30;93.40;;;;;;4917208;29;20289;-76
2021/03/20 09:17:53;;;;;;;1.50;1.50;;;3.50;93.00;;;;;;4917110;29;20933;-76
2021/03/20 09:20:29;;;;;;;1.23;1.23;;;3.30;99.90;;;;;;4930089;29;20213;-80
2021/03/20 09:22:57;;;;;;;1.20;1.20;;;3.30;92.70;;;;;;4936363;29;20667;-79
2021/03/20 09:25:31;;;;;;;1.30;1.30;;;3.20;92.70;;;;;;4936149;29;20738;-79
2021/03/20 09:28:11;;;;;;;1.40;1.40;;;3.20;93.10;;;;;;4936342;29;20206;-79
2021/03/20 09:30:39;;;;;;;1.47;1.47;;;3.00;92.80;;;;;;4936462;29;20229;-79
2021/03/20 09:33:15;;;;;;;1.40;1.40;;;3.20;93.50;;;;;;4937066;29;20277;-78
2021/03/20 09:35:45;;;;;;;1.20;1.20;;;3.50;93.50;;;;;;4936588;29;20225;-77
2021/03/20 09:38:13;;;;;;;1.30;1.30;;;3.60;92.80;;;;;;4936492;29;20738;-77
2021/03/20 09:40:54;;;;;;;1.30;1.30;;;3.20;91.30;;;;;;4937383;29;20226;-78
2021/03/20 09:47:26;;;;;;;1.20;1.20;;;3.00;91.80;;;;;;4912583;29;20241;-78
2021/03/20 09:49:56;;;;;;;1.40;1.40;;;3.10;92.40;;;;;;4932690;29;20277;-81
2021/03/20 09:52:45;;;;;;;1.33;1.33;;;2.80;91.40;;;;;;4937663;29;20225;-78
2021/03/20 09:55:41;;;;;;;1.30;1.30;;;2.70;92.40;;;;;;4928466;29;20671;-81
2021/03/20 09:58:39;;;;;;;1.30;1.30;;;2.90;92.90;;;;;;4937620;29;20214;-81
2021/03/20 10:01:15;;;;;;;1.40;1.40;;;2.80;92.80;;;;;;4936070;29;20281;-78
2021/03/20 10:04:24;;;;;;;1.40;1.40;;;2.70;92.60;;;;;;4937511;29;20285;-79
2021/03/20 10:07:18;;;;;;;1.40;1.40;;;2.70;92.00;;;;;;4922686;29;20257;-78
2021/03/20 10:09:52;;;;;;;1.40;1.40;;;2.90;90.40;;;;;;4938061;29;20627;-78
2021/03/20 10:12:29;;;;;;;1.40;1.40;;;2.90;90.40;;;;;;4937194;29;20233;-77
2021/03/20 10:15:21;;;;;;;1.40;1.40;;;2.80;88.70;;;;;;4912895;29;20214;-78
2021/03/20 10:18:25;;;;;;;1.30;1.30;;;2.80;90.00;;;;;;4937072;29;20205;-78
2021/03/20 10:21:03;;;;;;;1.27;1.27;;;2.90;89.20;;;;;;4928525;29;20740;-77
2021/03/20 10:23:42;;;;;;;1.30;1.30;;;3.00;89.30;;;;;;4917599;29;20206;-77
2021/03/20 10:26:24;;;;;;;1.33;1.33;;;3.30;89.10;;;;;;4916874;29;20202;-78
2021/03/20 10:28:53;;;;;;;1.40;1.40;;;3.40;88.30;;;;;;4918230;29;20664;-78
2021/03/20 10:31:21;;;;;;;1.50;1.50;;;3.30;88.00;;;;;;4918253;29;20234;-78
2021/03/20 10:33:50;;;;;;;1.40;1.40;;;3.20;88.90;;;;;;4919628;29;20584;-78
2021/03/20 10:36:26;;;;;;;1.40;1.40;;;3.30;88.20;;;;;;4919213;29;20210;-78
2021/03/20 10:39:28;;;;;;;1.30;1.30;;;3.60;90.20;;;;;;4919850;29;20663;-78
2021/03/20 10:42:01;;;;;;;1.40;1.40;;;3.80;88.10;;;;;;4919286;29;20262;-78
2021/03/20 10:44:32;;;;;;;1.40;1.40;;;4.00;86.80;;;;;;4916302;29;20270;-77
2021/03/20 10:47:06;;;;;;;1.40;1.40;;;4.20;86.30;;;;;;4927056;29;20206;-78
2021/03/20 10:49:39;;;;;;;1.17;1.17;;;4.10;84.10;;;;;;4920311;29;20645;-78
2021/03/20 10:52:15;;;;;;;1.33;1.33;;;3.80;85.30;;;;;;4916438;29;20226;-79
2021/03/20 10:54:46;;;;;;;1.30;1.30;;;4.00;85.70;;;;;;4916818;29;20289;-80
2021/03/20 10:57:17;;;;;;;1.40;1.40;;;3.80;86.20;;;;;;4917384;29;20210;-79
2021/03/20 10:59:46;;;;;;;1.43;1.43;;;3.80;86.30;;;;;;4917218;29;20203;-79
2021/03/20 11:02:20;;;;;;;1.30;1.30;;;3.90;86.00;;;;;;4917881;29;20285;-83
2021/03/20 11:04:48;;;;;;;1.27;1.27;;;4.20;98.50;;;;;;4917714;29;20248;-81
2021/03/20 11:07:17;;;;;;;1.30;1.30;;;4.60;82.60;;;;;;4919939;29;20207;-82
2021/03/20 11:09:44;;;;;;;1.10;1.10;;;;;;;;;;4919463;29;20213;-83
2021/03/20 11:12:17;;;;;;;1.33;1.33;;;4.90;80.90;;;;;;4920641;29;20234;-82
2021/03/20 11:14:47;;;;;;;1.30;1.30;;;5.30;77.80;;;;;;4920098;29;20281;-81
2021/03/20 11:17:18;;;;;;;1.30;1.30;;;5.30;78.50;;;;;;4922401;29;20210;-82
2021/03/20 11:19:47;;;;;;;1.30;1.30;;;5.30;77.50;;;;;;4922103;29;20210;-82
2021/03/20 11:22:20;;;;;;;1.30;1.30;;;5.00;78.80;;;;;;4922680;29;20713;-81
2021/03/20 11:24:53;;;;;;;1.30;1.30;;;5.10;80.30;;;;;;4995139;23;20231;-76
2021/03/20 11:27:23;;;;;;;1.30;1.30;;;5.00;79.60;;;;;;4991906;28;20207;-76
2021/03/20 11:29:54;;;;;;;1.60;1.60;;;4.90;80.00;;;;;;4991662;28;20771;-76
2021/03/20 11:32:26;;;;;;;1.40;1.40;;;5.00;80.00;;;;;;4995729;28;20215;-77
2021/03/20 11:35:02;;;;;;;1.30;1.30;;;5.00;78.40;;;;;;4994378;28;20270;-77
2021/03/20 11:37:29;;;;;;;1.40;1.40;;;4.70;78.80;;;;;;4994977;28;20204;-77
2021/03/20 11:39:58;;;;;;;1.30;1.30;;;4.60;80.00;;;;;;4995920;28;20630;-77
2021/03/20 11:42:28;;;;;;;1.40;1.40;;;4.50;81.20;;;;;;4980126;28;20259;-78
2021/03/20 11:44:57;;;;;;;1.40;1.40;;;4.60;85.10;;;;;;4976937;28;20225;-78
2021/03/20 11:47:33;;;;;;;1.50;1.50;;;4.60;88.30;;;;;;4976332;28;20290;-77
2021/03/20 11:50:04;;;;;;;1.13;1.13;;;4.00;90.10;;;;;;4981342;28;20620;-79
2021/03/20 11:52:49;;;;;;;1.17;1.17;;;3.40;99.90;;;;;;4975642;28;20200;-77
2021/03/20 11:55:20;;;;;;;1.40;1.40;;;3.60;90.70;;;;;;4977595;28;20263;-76
2021/03/20 11:57:50;;;;;;;1.30;1.30;;;3.70;99.90;;;;;;4993414;28;20230;-77
2021/03/20 12:00:45;;;;;;;1.17;1.17;;;4.00;99.90;;;;;;4990019;28;20535;-77
2021/03/20 12:03:28;;;;;;;1.20;1.20;;;3.90;87.50;;;;;;4977634;28;20233;-78
2021/03/20 12:06:21;;;;;;;1.23;1.23;;;4.30;99.90;;;;;;4975990;28;20227;-77
2021/03/20 12:08:49;;;;;;;1.30;1.30;;;3.60;99.90;;;;;;4976322;28;20211;-77
2021/03/20 12:11:17;;;;;;;1.33;1.33;;;3.50;99.90;;;;;;4975564;28;20200;-77
2021/03/20 12:13:49;;;;;;;1.30;1.30;;;3.50;92.70;;;;;;4975154;28;20232;-77
2021/03/20 12:16:28;;;;;;;1.10;1.10;;;3.30;93.10;;;;;;4974561;28;20205;-77
2021/03/20 12:19:12;;;;;;;1.20;1.20;;;3.50;90.50;;;;;;4974139;28;20278;-76
2021/03/20 12:21:57;;;;;;;1.30;1.30;;;3.70;99.90;;;;;;4974987;28;20213;-77
2021/03/20 12:24:30;;;;;;;1.20;1.20;;;4.00;90.70;;;;;;4975106;28;20236;-77
2021/03/20 12:27:17;;;;;;;1.30;1.30;;;4.40;99.90;;;;;;4974900;28;20213;-77
2021/03/20 12:29:45;;;;;;;1.20;1.20;;;4.70;89.10;;;;;;4975176;28;20215;-77
2021/03/20 12:32:24;;;;;;;1.20;1.20;;;4.80;88.20;;;;;;4975701;28;20665;-78
2021/03/20 12:34:52;;;;;;;1.30;1.30;;;5.40;99.90;;;;;;4982720;28;20232;-77
2021/03/20 12:37:22;;;;;;;1.20;1.20;;;4.70;99.80;;;;;;4992575;28;20207;-76
2021/03/20 12:39:50;;;;;;;1.20;1.20;;;4.00;90.40;;;;;;4982806;28;20267;-76
2021/03/20 12:42:18;;;;;;;1.30;1.30;;;4.10;89.30;;;;;;4974491;28;20212;-76
2021/03/20 12:44:48;;;;;;;1.40;1.40;;;3.70;90.30;;;;;;4974414;28;20228;-77
2021/03/20 12:47:18;;;;;;;1.20;1.20;;;3.60;91.20;;;;;;4973542;28;20209;-76
2021/03/20 12:49:46;;;;;;;1.30;1.30;;;3.20;99.90;;;;;;4974210;28;20244;-77
2021/03/20 12:52:17;;;;;;;1.20;1.20;;;3.30;92.40;;;;;;4974300;28;20236;-77
2021/03/20 12:54:47;;;;;;;1.30;1.30;;;3.10;93.00;;;;;;4974269;28;20236;-75
2021/03/20 12:57:23;;;;;;;1.30;1.30;;;3.00;99.90;;;;;;4974580;28;20645;-77
2021/03/20 12:59:51;;;;;;;1.50;1.50;;;2.90;99.90;;;;;;4988867;28;20199;-76
2021/03/20 13:02:18;;;;;;;1.30;1.30;;;3.30;97.20;;;;;;4993745;28;20701;-76
2021/03/20 13:04:46;;;;;;;1.10;1.10;;;;;;;;;;4993309;28;20216;-76
2021/03/20 13:07:14;;;;;;;1.30;1.30;;;3.70;99.90;;;;;;4993535;28;20219;-77
2021/03/20 13:09:41;;;;;;;1.37;1.37;;;4.00;99.90;;;;;;4993693;28;20203;-76
2021/03/20 13:12:11;;;;;;;1.20;1.20;;;4.00;97.80;;;;;;4994059;28;20227;-77
2021/03/20 13:14:38;;;;;;;1.20;1.20;;;;;;;;;;4993312;28;20227;-75
2021/03/20 13:17:08;;;;;;;1.20;1.20;;;4.70;85.80;;;;;;4993067;28;20208;-76
2021/03/20 13:19:35;;;;;;;1.30;1.30;;;5.10;99.30;;;;;;4993491;28;20200;-75
2021/03/20 13:22:04;;;;;;;1.40;1.40;;;5.00;85.60;;;;;;4993314;28;20254;-76
2021/03/20 13:24:33;;;;;;;1.20;1.20;;;5.20;98.50;;;;;;4993016;28;20239;-77
2021/03/20 13:27:01;;;;;;;1.30;1.30;;;5.20;95.50;;;;;;4992929;28;20208;-76
2021/03/20 13:29:30;;;;;;;1.27;1.27;;;;;;;;;;4992960;28;20215;-76
2021/03/20 13:31:57;;;;;;;1.30;1.30;;;;;;;;;;4993099;28;20661;-76
2021/03/20 13:34:25;;;;;;;1.20;1.20;;;5.20;83.90;;;;;;4992749;28;20224;-75
2021/03/20 13:36:52;;;;;;;1.30;1.30;;;;;;;;;;4992945;28;20204;-76
2021/03/20 13:39:19;;;;;;;1.13;1.13;;;4.80;98.80;;;;;;4992755;28;20258;-76
2021/03/20 13:41:47;;;;;;;1.40;1.40;;;;;;;;;;4993219;28;20600;-75
2021/03/20 13:44:15;;;;;;;1.40;1.40;;;4.90;97.30;;;;;;4992345;28;20569;-76
2021/03/20 13:46:42;;;;;;;1.20;1.20;;;;;;;;;;4992383;28;20212;-77
2021/03/20 13:49:10;;;;;;;1.50;1.50;;;5.30;97.20;;;;;;4993207;28;20669;-77
2021/03/20 13:51:39;;;;;;;1.20;1.20;;;5.40;90.40;;;;;;4993108;28;20688;-77
2021/03/20 13:54:06;;;;;;;1.10;1.10;;;5.00;96.40;;;;;;4991760;28;20224;-77
2021/03/20 13:56:34;;;;;;;1.10;1.10;;;;;;;;;;4995760;28;20665;-78
2021/03/20 13:59:01;;;;;;;1.10;1.10;;;4.30;94.00;;;;;;4992748;28;21308;-78
2021/03/20 14:01:28;;;;;;;1.37;1.37;;;4.30;93.60;;;;;;4992897;28;20211;-76
2021/03/20 14:03:55;;;;;;;1.40;1.40;;;;;;;;;;4992975;28;20286;-78
2021/03/20 14:06:24;;;;;;;1.30;1.30;;;3.50;99.90;;;;;;4993022;28;20669;-78
2021/03/20 14:08:52;;;;;;;1.20;1.20;;;3.40;89.90;;;;;;4993245;28;20212;-78
2021/03/20 14:11:19;;;;;;;1.10;1.10;;;;;;;;;;4993202;28;20262;-78
2021/03/20 14:13:47;;;;;;;1.33;1.33;;;;;;;;;;4992572;28;20228;-78
2021/03/20 14:16:14;;;;;;;1.20;1.20;;;;;;;;;;4992641;28;20215;-77
2021/03/20 14:18:42;;;;;;;1.30;1.30;;;3.50;91.50;;;;;;4992732;28;20250;-76
2021/03/20 14:21:13;;;;;;;1.20;1.20;;;3.40;91.70;;;;;;4993251;28;20208;-78
2021/03/20 14:23:40;;;;;;;1.30;1.30;;;3.60;99.90;;;;;;4992187;28;20228;-76
2021/03/20 14:26:08;;;;;;;1.30;1.30;;;4.30;99.90;;;;;;4992578;28;20222;-78
2021/03/20 14:28:35;;;;;;;1.30;1.30;;;3.80;99.90;;;;;;4992292;28;20220;-75
2021/03/20 14:31:04;;;;;;;1.20;1.20;;;4.30;86.90;;;;;;4992363;28;20255;-77
2021/03/20 14:33:34;;;;;;;1.30;1.30;;;4.20;99.90;;;;;;4992183;28;20251;-75
2021/03/20 14:36:04;;;;;;;1.30;1.30;;;4.40;99.90;;;;;;4992145;28;20204;-78
2021/03/20 14:38:31;;;;;;;1.40;1.40;;;5.20;91.80;;;;;;4992895;28;20200;-77
2021/03/20 14:40:59;;;;;;;1.27;1.27;;;4.30;90.20;;;;;;4988465;28;20200;-78
2021/03/20 14:43:27;;;;;;;1.30;1.30;;;4.60;86.50;;;;;;4972594;28;20225;-76
2021/03/20 14:45:54;;;;;;;1.27;1.27;;;4.90;95.20;;;;;;4972253;28;20728;-75
2021/03/20 14:48:24;;;;;;;1.20;1.20;;;4.80;82.60;;;;;;4972479;28;20493;-75
2021/03/20 14:50:52;;;;;;;1.40;1.40;;;4.60;93.00;;;;;;4973006;28;20587;-78
2021/03/20 14:53:19;;;;;;;1.40;1.40;;;4.40;98.70;;;;;;4972874;28;20244;-77
2021/03/20 14:55:46;;;;;;;1.40;1.40;;;;;;;;;;4973523;28;20201;-78
2021/03/20 14:58:14;;;;;;;1.30;1.30;;;;;;;;;;4974379;28;20208;-78
2021/03/20 15:00:44;;;;;;;1.20;1.20;;;5.00;88.20;;;;;;4973000;28;20287;-77
2021/03/20 15:03:13;;;;;;;1.30;1.30;;;4.30;82.60;;;;;;4973218;28;20225;-78
2021/03/20 15:05:42;;;;;;;1.20;1.20;;;4.70;83.90;;;;;;4972221;28;20566;-77
2021/03/20 15:08:12;;;;;;;1.40;1.40;;;4.40;82.60;;;;;;4972438;28;20259;-76
2021/03/20 15:10:42;;;;;;;1.13;1.13;;;4.20;82.90;;;;;;4971966;28;20217;-76
2021/03/20 15:13:09;;;;;;;1.20;1.20;;;;;;;;;;4972336;28;20228;-78
2021/03/20 15:15:37;;;;;;;1.30;1.30;;;;;;;;;;4972693;28;20213;-77
2021/03/20 15:18:06;;;;;;;1.23;1.23;;;4.00;98.70;;;;;;4974639;28;20284;-77
2021/03/20 15:20:37;;;;;;;1.30;1.30;;;4.20;82.50;;;;;;4972509;28;20208;-76
2021/03/20 15:23:19;;;;;;;1.20;1.20;;;4.20;98.60;;;;;;4974050;28;20232;-76
2021/03/20 15:25:46;;;;;;;1.33;1.33;;;;;;;;;;4973660;28;20220;-78
2021/03/20 15:28:14;;;;;;;1.30;1.30;;;;;;;;;;4973202;28;20216;-79
2021/03/20 15:30:43;;;;;;;1.30;1.30;;;4.10;85.40;;;;;;4974421;28;20380;-77
2021/03/20 15:33:11;;;;;;;1.10;1.10;;;3.90;84.40;;;;;;4973040;28;20647;-77
2021/03/20 15:35:39;;;;;;;1.20;1.20;;;;;;;;;;4973182;28;20205;-75
2021/03/20 15:38:07;;;;;;;1.20;1.20;;;;;;;;;;4972894;28;20212;-77
2021/03/20 15:44:15;;;;;;;1.40;1.40;;;;;;;;;;4975440;28;20846;-75
2021/03/20 15:46:42;;;;;;;1.30;1.30;;;;;;;;;;4990936;28;20232;-75
2021/03/20 15:49:10;;;;;;;1.50;1.50;;;4.30;96.40;;;;;;4990123;28;20234;-74
2021/03/20 15:51:38;;;;;;;1.20;1.20;;;;;;;;;;4987489;28;20212;-75
2021/03/20 15:54:05;;;;;;;1.30;1.30;;;3.50;99.90;;;;;;4972006;28;20233;-75
2021/03/20 15:56:32;;;;;;;1.20;1.20;;;;;;;;;;4970193;28;20223;-75
2021/03/20 15:58:59;;;;;;;1.30;1.30;;;;;;;;;;4970583;28;20208;-77
2021/03/20 16:01:27;;;;;;;1.10;1.10;;;;;;;;;;4973184;28;20208;-77
2021/03/20 16:03:54;;;;;;;1.20;1.20;;;3.50;99.90;;;;;;4990696;28;20732;-76
2021/03/20 16:06:22;;;;;;;1.40;1.40;;;3.50;99.90;;;;;;4990402;28;20651;-75
2021/03/20 16:08:50;;;;;;;1.20;1.20;;;3.30;88.70;;;;;;4990849;28;20204;-74
2021/03/20 16:11:18;;;;;;;1.47;1.47;;;3.10;99.90;;;;;;4990308;28;20727;-75
2021/03/20 16:13:46;;;;;;;1.30;1.30;;;3.40;90.30;;;;;;4990195;28;20274;-75
2021/03/20 16:16:15;;;;;;;1.40;1.40;;;3.10;91.40;;;;;;4990302;28;20259;-77
2021/03/20 16:18:43;;;;;;;1.30;1.30;;;;;;;;;;4990844;28;20258;-77
2021/03/20 16:21:12;;;;;;;1.20;1.20;;;3.60;93.50;;;;;;4990502;28;20500;-77
2021/03/20 16:23:40;;;;;;;1.20;1.20;;;3.40;95.80;;;;;;4994511;28;20665;-77
2021/03/20 16:26:12;;;;;;;1.30;1.30;;;3.30;89.90;;;;;;4996340;28;20615;-76
2021/03/20 16:28:41;;;;;;;1.20;1.20;;;3.10;92.70;;;;;;4995038;28;20211;-77
2021/03/20 16:31:11;;;;;;;1.20;1.20;;;3.20;97.50;;;;;;4994466;28;20557;-77
2021/03/20 16:33:39;;;;;;;1.27;1.27;;;3.60;99.90;;;;;;4994437;28;20290;-76
2021/03/20 16:36:08;;;;;;;1.30;1.30;;;2.70;92.60;;;;;;4993345;28;20435;-76
2021/03/20 16:38:38;;;;;;;1.40;1.40;;;3.00;99.50;;;;;;4975218;28;20580;-76
2021/03/20 16:41:07;;;;;;;1.27;1.27;;;3.00;99.90;;;;;;4974680;28;20200;-77
2021/03/20 16:43:35;;;;;;;1.30;1.30;;;2.90;91.60;;;;;;4975016;28;20225;-76
2021/03/20 16:46:03;;;;;;;1.40;1.40;;;2.90;99.90;;;;;;4974668;28;20239;-77
2021/03/20 16:48:34;;;;;;;1.20;1.20;;;2.80;91.80;;;;;;4974825;28;20259;-77
2021/03/20 16:51:22;;;;;;;1.30;1.30;;;3.00;99.90;;;;;;4976324;28;20205;-76
2021/03/20 16:53:50;;;;;;;1.30;1.30;;;2.60;91.60;;;;;;4993375;28;21215;-76
2021/03/20 16:56:20;;;;;;;1.20;1.20;;;2.60;96.70;;;;;;4995115;28;20208;-77
2021/03/20 16:58:52;;;;;;;1.37;1.37;;;2.70;99.90;;;;;;4994984;28;20208;-76
2021/03/20 17:01:20;;;;;;;1.30;1.30;;;2.60;94.60;;;;;;4992683;28;20676;-77
2021/03/20 17:03:48;;;;;;;1.37;1.37;;;;;;;;;;4975278;28;20227;-76
2021/03/20 17:06:18;;;;;;;1.30;1.30;;;2.60;91.30;;;;;;4975438;28;20240;-77
2021/03/20 17:08:46;;;;;;;1.20;1.20;;;2.60;99.90;;;;;;4975727;28;20361;-77
2021/03/20 17:11:13;;;;;;;1.20;1.20;;;2.70;96.70;;;;;;4973902;28;20235;-76
2021/03/20 17:13:42;;;;;;;1.30;1.30;;;2.60;97.10;;;;;;4974225;28;20225;-76
2021/03/20 17:16:09;;;;;;;1.40;1.40;;;2.50;99.90;;;;;;4974172;28;20209;-76
2021/03/20 17:18:37;;;;;;;1.20;1.20;;;;;;;;;;4974165;28;20205;-76
2021/03/20 17:21:07;;;;;;;1.27;1.27;;;2.50;91.80;;;;;;4973819;28;20204;-76
2021/03/20 17:23:35;;;;;;;1.30;1.30;;;2.60;91.90;;;;;;4990576;23;20278;-76
2021/03/20 17:26:03;;;;;;;1.30;1.30;;;2.60;92.00;;;;;;4993993;28;20627;-76
2021/03/20 17:28:32;;;;;;;1.10;1.10;;;2.50;99.90;;;;;;4994298;28;20204;-76
2021/03/20 17:31:03;;;;;;;1.30;1.30;;;2.50;91.80;;;;;;4994630;28;20208;-76
2021/03/20 17:33:31;;;;;;;1.10;1.10;;;2.50;99.90;;;;;;4970689;28;20225;-77
2021/03/20 17:35:58;;;;;;;1.20;1.20;;;2.60;99.90;;;;;;4955502;29;20240;-76
2021/03/20 17:38:28;;;;;;;1.20;1.20;;;2.60;99.90;;;;;;4956064;29;20202;-77
2021/03/20 17:40:56;;;;;;;1.30;1.30;;;2.60;99.90;;;;;;4956311;29;20202;-77
2021/03/20 17:47:12;;;;;;;1.50;1.50;;;2.60;92.70;;;;;;4964808;28;20259;-74
2021/03/20 17:49:39;;;;;;;1.40;1.40;;;2.60;99.90;;;;;;4954722;29;20221;-76
2021/03/20 17:52:08;;;;;;;1.20;1.20;;;2.90;95.60;;;;;;4953798;28;20324;-76
2021/03/20 17:54:36;;;;;;;1.40;1.40;;;2.80;99.90;;;;;;4954823;29;20221;-76
2021/03/20 17:57:05;;;;;;;1.30;1.30;;;2.80;99.90;;;;;;4955060;29;20205;-75
2021/03/20 17:59:32;;;;;;;1.17;1.17;;;2.50;97.30;;;;;;4955111;29;20209;-74
2021/03/20 18:01:59;;;;;;;1.20;1.20;;;2.70;99.90;;;;;;4954602;28;20260;-74
2021/03/20 18:04:28;;;;;;;1.10;1.10;;;2.80;99.90;;;;;;4954958;28;20212;-75
2021/03/20 18:06:55;;;;;;;1.37;1.37;;;2.70;99.90;;;;;;4972930;28;20308;-74
2021/03/20 18:09:23;;;;;;;1.40;1.40;;;2.70;99.90;;;;;;4974613;28;20208;-75
2021/03/20 18:11:50;;;;;;;1.30;1.30;;;;;;;;;;4963415;28;20207;-74
2021/03/20 18:14:17;;;;;;;1.20;1.20;;;2.50;99.90;;;;;;4954807;29;20229;-75
2021/03/20 18:16:45;;;;;;;1.33;1.33;;;2.60;99.90;;;;;;4965329;28;20657;-75
2021/03/20 18:19:12;;;;;;;1.43;1.43;;;;;;;;;;4973252;28;20655;-75
2021/03/20 18:21:40;;;;;;;1.20;1.20;;;2.60;92.60;;;;;;4971638;28;20217;-75
2021/03/20 18:24:08;;;;;;;1.37;1.37;;;2.70;99.90;;;;;;4973336;28;20225;-75
2021/03/20 18:26:35;;;;;;;1.20;1.20;;;2.70;99.90;;;;;;4973384;28;20201;-76
2021/03/20 18:29:02;;;;;;;1.13;1.13;;;2.60;99.90;;;;;;4973279;28;20665;-75
2021/03/20 18:31:29;;;;;;;1.40;1.40;;;;;;;;;;4973199;28;20276;-75
2021/03/20 18:33:58;;;;;;;1.30;1.30;;;2.50;99.90;;;;;;4972971;28;20232;-76
2021/03/20 18:36:26;;;;;;;1.40;1.40;;;2.60;93.30;;;;;;4972827;28;20692;-74
2021/03/20 18:38:54;;;;;;;1.20;1.20;;;2.70;99.90;;;;;;4973346;28;20208;-75
2021/03/20 18:41:24;;;;;;;1.33;1.33;;;2.50;99.90;;;;;;4973045;28;20201;-75
2021/03/20 18:43:52;;;;;;;1.40;1.40;;;;;;;;;;4972745;28;20228;-75
2021/03/20 18:46:20;;;;;;;1.30;1.30;;;2.50;99.90;;;;;;4971859;28;20271;-75
2021/03/20 18:48:48;;;;;;;1.30;1.30;;;2.40;99.90;;;;;;4973377;28;20201;-75
2021/03/20 18:51:17;;;;;;;1.43;1.43;;;2.40;93.30;;;;;;4973147;28;20243;-75
2021/03/20 18:53:46;;;;;;;1.20;1.20;;;;;;;;;;4972693;28;20281;-75
2021/03/20 18:56:14;;;;;;;1.30;1.30;;;2.40;99.90;;;;;;4973000;28;20236;-75